createdAt,value
2016-12-09T00:00:22.927Z,0
2016-12-09T00:01:22.912Z,0
2016-12-09T00:02:22.892Z,0
2016-12-09T00:03:22.872Z,0
2016-12-09T00:04:22.858Z,0
2016-12-09T00:05:22.867Z,0
2016-12-09T00:06:22.821Z,0
2016-12-09T00:07:22.815Z,0
2016-12-09T00:08:22.796Z,0
2016-12-09T00:09:23.178Z,0
2016-12-09T00:10:22.771Z,0
2016-12-09T00:11:22.737Z,0
2016-12-09T00:12:22.716Z,0
2016-12-09T00:13:22.700Z,0
2016-12-09T00:14:22.680Z,0
2016-12-09T00:15:22.659Z,0
2016-12-09T00:16:22.641Z,0
2016-12-09T00:17:22.626Z,0
2016-12-09T00:18:22.613Z,0
2016-12-09T00:19:22.591Z,0
2016-12-09T00:20:22.889Z,0
2016-12-09T00:21:22.556Z,0
2016-12-09T00:22:22.584Z,0
2016-12-09T00:23:22.525Z,0
2016-12-09T00:24:22.506Z,0
2016-12-09T00:25:22.485Z,0
2016-12-09T00:26:22.472Z,0
2016-12-09T00:27:22.763Z,0
2016-12-09T00:28:22.746Z,0
2016-12-09T00:29:22.467Z,0
2016-12-09T00:30:22.395Z,0
2016-12-09T00:31:22.434Z,0
2016-12-09T00:32:22.677Z,0
2016-12-09T00:33:22.349Z,0
2016-12-09T00:34:22.324Z,0
2016-12-09T00:35:22.625Z,0
2016-12-09T00:36:22.297Z,0
2016-12-09T00:37:22.277Z,0
2016-12-09T00:38:22.575Z,0
2016-12-09T00:39:22.241Z,0
2016-12-09T00:40:22.852Z,0
2016-12-09T00:41:22.206Z,0
2016-12-09T00:42:22.499Z,0
2016-12-09T00:43:22.796Z,0
2016-12-09T00:44:22.149Z,0
2016-12-09T00:45:22.135Z,0
2016-12-09T00:46:22.121Z,0
2016-12-09T00:47:22.099Z,0
2016-12-09T00:48:22.081Z,0
2016-12-09T00:49:22.063Z,0
2016-12-09T00:50:22.045Z,0
2016-12-09T00:51:22.343Z,0
2016-12-09T00:52:22.011Z,0
2016-12-09T00:53:22.304Z,0
2016-12-09T00:54:22.306Z,0
2016-12-09T00:55:21.977Z,0
2016-12-09T00:56:22.274Z,0
2016-12-09T00:57:22.239Z,0
2016-12-09T00:58:21.910Z,0
2016-12-09T00:59:21.896Z,0
2016-12-09T01:00:21.879Z,0
2016-12-09T01:01:21.858Z,0
2016-12-09T01:02:22.197Z,0
2016-12-09T01:03:22.129Z,0
2016-12-09T01:04:21.802Z,0
2016-12-09T01:05:21.784Z,0
2016-12-09T01:06:21.767Z,0
2016-12-09T01:07:21.743Z,0
2016-12-09T01:08:22.366Z,0
2016-12-09T01:09:22.021Z,0
2016-12-09T01:10:22.005Z,0
2016-12-09T01:11:21.678Z,0
2016-12-09T01:12:21.975Z,0
2016-12-09T01:13:21.648Z,0
2016-12-09T01:14:21.630Z,0
2016-12-09T01:15:21.612Z,0
2016-12-09T01:16:21.601Z,0
2016-12-09T01:17:21.574Z,0
2016-12-09T01:18:21.549Z,0
2016-12-09T01:19:21.587Z,0
2016-12-09T01:20:21.520Z,0
2016-12-09T01:21:21.532Z,0
2016-12-09T01:22:21.800Z,0
2016-12-09T01:23:21.468Z,0
2016-12-09T01:24:21.448Z,0
2016-12-09T01:25:21.429Z,0
2016-12-09T01:26:21.416Z,0
2016-12-09T01:27:21.397Z,0
2016-12-09T01:28:21.388Z,0
2016-12-09T01:29:21.676Z,0
2016-12-09T01:30:21.422Z,0
2016-12-09T01:31:21.332Z,0
2016-12-09T01:32:21.312Z,0
2016-12-09T01:33:21.297Z,0
2016-12-09T01:34:21.276Z,0
2016-12-09T01:35:21.287Z,0
2016-12-09T01:36:21.552Z,0
2016-12-09T01:37:21.538Z,0
2016-12-09T01:38:21.210Z,0
2016-12-09T01:39:21.189Z,0
2016-12-09T01:40:21.175Z,0
2016-12-09T01:41:21.156Z,0
2016-12-09T01:42:21.157Z,0
2016-12-09T01:43:21.133Z,0
2016-12-09T01:44:21.419Z,0
2016-12-09T01:45:21.091Z,0
2016-12-09T01:46:21.388Z,0
2016-12-09T01:47:21.364Z,0
2016-12-09T01:48:21.034Z,0
2016-12-09T01:49:21.019Z,0
2016-12-09T01:50:21.003Z,0
2016-12-09T01:51:21.289Z,0
2016-12-09T01:52:21.280Z,0
2016-12-09T01:53:20.950Z,0
2016-12-09T01:54:21.243Z,0
2016-12-09T01:55:20.922Z,0
2016-12-09T01:56:20.914Z,0
2016-12-09T01:57:20.940Z,0
2016-12-09T01:58:20.867Z,0
2016-12-09T01:59:20.844Z,0
2016-12-09T02:00:21.139Z,0
2016-12-09T02:01:20.810Z,0
2016-12-09T02:02:20.792Z,0
2016-12-09T02:03:20.773Z,0
2016-12-09T02:04:20.758Z,0
2016-12-09T02:05:20.744Z,0
2016-12-09T02:06:21.034Z,0
2016-12-09T02:07:21.020Z,0
2016-12-09T02:08:20.698Z,0
2016-12-09T02:09:20.673Z,0
2016-12-09T02:10:20.671Z,0
2016-12-09T02:11:20.657Z,0
2016-12-09T02:12:20.625Z,0
2016-12-09T02:13:20.603Z,0
2016-12-09T02:14:20.608Z,0
2016-12-09T02:15:20.576Z,0
2016-12-09T02:16:20.556Z,0
2016-12-09T02:17:20.564Z,0
2016-12-09T02:18:20.527Z,0
2016-12-09T02:19:20.506Z,0
2016-12-09T02:20:20.481Z,0
2016-12-09T02:21:20.787Z,0
2016-12-09T02:22:20.451Z,0
2016-12-09T02:23:21.053Z,0
2016-12-09T02:24:20.409Z,0
2016-12-09T02:25:20.397Z,0
2016-12-09T02:26:20.686Z,0
2016-12-09T02:27:20.363Z,0
2016-12-09T02:28:20.339Z,0
2016-12-09T02:29:20.640Z,0
2016-12-09T02:30:20.332Z,0
2016-12-09T02:31:20.605Z,0
2016-12-09T02:32:20.270Z,0
2016-12-09T02:33:20.255Z,0
2016-12-09T02:34:20.234Z,0
2016-12-09T02:35:20.222Z,0
2016-12-09T02:36:20.197Z,0
2016-12-09T02:37:20.186Z,0
2016-12-09T02:38:20.169Z,0
2016-12-09T02:39:20.459Z,0
2016-12-09T02:40:20.138Z,0
2016-12-09T02:41:20.119Z,0
2016-12-09T02:42:20.101Z,0
2016-12-09T02:43:20.080Z,0
2016-12-09T02:44:20.058Z,0
2016-12-09T02:45:20.097Z,0
2016-12-09T02:46:20.033Z,0
2016-12-09T02:47:20.005Z,0
2016-12-09T02:48:20.307Z,0
2016-12-09T02:49:20.286Z,0
2016-12-09T02:50:19.956Z,0
2016-12-09T02:51:20.256Z,0
2016-12-09T02:52:19.928Z,0
2016-12-09T02:53:19.914Z,0
2016-12-09T02:54:19.893Z,0
2016-12-09T02:55:19.874Z,0
2016-12-09T02:56:19.857Z,0
2016-12-09T02:57:20.149Z,0
2016-12-09T02:58:20.137Z,0
2016-12-09T02:59:19.802Z,0
2016-12-09T03:00:20.100Z,0
2016-12-09T03:01:19.770Z,0
2016-12-09T03:02:19.750Z,0
2016-12-09T03:03:19.736Z,0
2016-12-09T03:04:19.723Z,0
2016-12-09T03:05:19.694Z,0
2016-12-09T03:06:19.679Z,0
2016-12-09T03:07:19.665Z,0
2016-12-09T03:08:19.671Z,0
2016-12-09T03:09:19.631Z,0
2016-12-09T03:10:19.618Z,0
2016-12-09T03:11:19.597Z,0
2016-12-09T03:12:19.575Z,0
2016-12-09T03:13:19.569Z,0
2016-12-09T03:14:19.543Z,0
2016-12-09T03:15:19.532Z,0
2016-12-09T03:16:19.517Z,0
2016-12-09T03:17:19.801Z,0
2016-12-09T03:18:19.790Z,0
2016-12-09T03:19:19.462Z,0
2016-12-09T03:20:19.441Z,0
2016-12-09T03:21:19.424Z,0
2016-12-09T03:22:19.409Z,0
2016-12-09T03:23:19.399Z,0
2016-12-09T03:24:19.389Z,0
2016-12-09T03:25:19.365Z,0
2016-12-09T03:26:19.340Z,0
2016-12-09T03:27:19.322Z,0
2016-12-09T03:28:19.306Z,0
2016-12-09T03:29:19.296Z,0
2016-12-09T03:30:19.322Z,0
2016-12-09T03:31:19.255Z,0
2016-12-09T03:32:19.324Z,0
2016-12-09T03:33:19.529Z,0
2016-12-09T03:34:19.208Z,0
2016-12-09T03:35:19.494Z,0
2016-12-09T03:36:19.480Z,0
2016-12-09T03:37:19.177Z,0
2016-12-09T03:38:19.131Z,0
2016-12-09T03:39:19.118Z,0
2016-12-09T03:40:19.419Z,0
2016-12-09T03:41:19.397Z,0
2016-12-09T03:42:19.071Z,0
2016-12-09T03:43:19.054Z,0
2016-12-09T03:44:19.342Z,0
2016-12-09T03:45:19.038Z,0
2016-12-09T03:46:19.005Z,0
2016-12-09T03:47:18.990Z,0
2016-12-09T03:48:18.968Z,0
2016-12-09T03:49:19.263Z,0
2016-12-09T03:50:18.936Z,0
2016-12-09T03:51:18.907Z,0
2016-12-09T03:52:19.520Z,0
2016-12-09T03:53:18.881Z,0
2016-12-09T03:54:19.267Z,0
2016-12-09T03:55:19.156Z,0
2016-12-09T03:56:18.826Z,0
2016-12-09T03:57:19.112Z,0
2016-12-09T03:58:19.123Z,0
2016-12-09T03:59:18.770Z,0
2016-12-09T04:00:19.067Z,0
2016-12-09T04:01:19.059Z,0
2016-12-09T04:02:19.056Z,0
2016-12-09T04:03:18.698Z,0
2016-12-09T04:04:18.683Z,0
2016-12-09T04:05:18.664Z,0
2016-12-09T04:06:18.979Z,0
2016-12-09T04:07:18.629Z,0
2016-12-09T04:08:18.608Z,0
2016-12-09T04:09:18.594Z,0
2016-12-09T04:10:18.777Z,0
2016-12-09T04:11:18.879Z,0
2016-12-09T04:12:18.539Z,0
2016-12-09T04:13:18.520Z,0
2016-12-09T04:14:18.504Z,0
2016-12-09T04:15:18.487Z,0
2016-12-09T04:16:18.468Z,0
2016-12-09T04:17:18.760Z,0
2016-12-09T04:18:18.436Z,0
2016-12-09T04:19:18.410Z,0
2016-12-09T04:20:18.407Z,0
2016-12-09T04:21:18.694Z,0
2016-12-09T04:22:18.360Z,0
2016-12-09T04:23:18.348Z,0
2016-12-09T04:24:18.324Z,0
2016-12-09T04:25:18.319Z,0
2016-12-09T04:26:18.301Z,0
2016-12-09T04:27:18.586Z,0
2016-12-09T04:28:18.261Z,0
2016-12-09T04:29:18.239Z,0
2016-12-09T04:30:18.224Z,0
2016-12-09T04:31:18.516Z,0
2016-12-09T04:32:18.497Z,0
2016-12-09T04:33:18.173Z,0
2016-12-09T04:34:18.150Z,0
2016-12-09T04:35:18.130Z,0
2016-12-09T04:36:18.114Z,0
2016-12-09T04:37:18.095Z,0
2016-12-09T04:38:18.079Z,0
2016-12-09T04:39:18.058Z,0
2016-12-09T04:40:18.042Z,0
2016-12-09T04:41:18.341Z,0
2016-12-09T04:42:18.321Z,0
2016-12-09T04:43:18.304Z,0
2016-12-09T04:44:17.980Z,0
2016-12-09T04:45:18.266Z,0
2016-12-09T04:46:17.937Z,0
2016-12-09T04:47:17.920Z,0
2016-12-09T04:48:18.214Z,0
2016-12-09T04:49:17.887Z,0
2016-12-09T04:50:17.868Z,0
2016-12-09T04:51:17.852Z,0
2016-12-09T04:52:17.832Z,0
2016-12-09T04:53:17.826Z,0
2016-12-09T04:54:17.810Z,0
2016-12-09T04:55:18.437Z,0
2016-12-09T04:56:17.775Z,0
2016-12-09T04:57:17.748Z,0
2016-12-09T04:58:17.731Z,0
2016-12-09T04:59:17.707Z,0
2016-12-09T05:00:17.695Z,0
2016-12-09T05:01:17.675Z,0
2016-12-09T05:02:17.646Z,0
2016-12-09T05:03:17.637Z,0
2016-12-09T05:04:17.958Z,0
2016-12-09T05:05:17.594Z,0
2016-12-09T05:06:17.587Z,0
2016-12-09T05:07:17.910Z,0
2016-12-09T05:08:17.858Z,0
2016-12-09T05:09:17.527Z,0
2016-12-09T05:10:17.833Z,0
2016-12-09T05:11:17.492Z,0
2016-12-09T05:12:17.790Z,0
2016-12-09T05:13:17.461Z,0
2016-12-09T05:14:17.439Z,0
2016-12-09T05:15:17.762Z,0
2016-12-09T05:16:17.416Z,0
2016-12-09T05:17:17.391Z,0
2016-12-09T05:18:17.706Z,0
2016-12-09T05:19:17.372Z,0
2016-12-09T05:20:17.658Z,0
2016-12-09T05:21:17.320Z,0
2016-12-09T05:22:17.354Z,0
2016-12-09T05:23:17.287Z,0
2016-12-09T05:24:17.264Z,0
2016-12-09T05:25:17.260Z,0
2016-12-09T05:26:17.232Z,0
2016-12-09T05:27:17.244Z,0
2016-12-09T05:28:17.198Z,0
2016-12-09T05:29:17.490Z,0
2016-12-09T05:30:17.784Z,0
2016-12-09T05:31:17.461Z,0
2016-12-09T05:32:17.129Z,0
2016-12-09T05:33:17.126Z,0
2016-12-09T05:34:17.087Z,0
2016-12-09T05:35:17.391Z,0
2016-12-09T05:36:17.065Z,0
2016-12-09T05:37:17.041Z,0
2016-12-09T05:38:17.347Z,0
2016-12-09T05:39:17.005Z,0
2016-12-09T05:40:16.984Z,0
2016-12-09T05:41:17.320Z,0
2016-12-09T05:42:16.974Z,0
2016-12-09T05:43:16.942Z,0
2016-12-09T05:44:17.236Z,0
2016-12-09T05:45:16.907Z,0
2016-12-09T05:46:16.898Z,0
2016-12-09T05:47:16.865Z,0
2016-12-09T05:48:16.847Z,0
2016-12-09T05:49:16.826Z,0
2016-12-09T05:50:17.127Z,0
2016-12-09T05:51:17.111Z,0
2016-12-09T05:52:16.790Z,0
2016-12-09T05:53:16.760Z,0
2016-12-09T05:54:17.058Z,0
2016-12-09T05:55:17.086Z,0
2016-12-09T05:56:17.022Z,0
2016-12-09T05:57:16.699Z,0
2016-12-09T05:58:16.668Z,0
2016-12-09T05:59:16.656Z,0
2016-12-09T06:00:16.635Z,0
2016-12-09T06:01:16.930Z,0
2016-12-09T06:02:16.601Z,0
2016-12-09T06:03:16.584Z,0
2016-12-09T06:04:16.564Z,0
2016-12-09T06:05:16.551Z,0
2016-12-09T06:06:16.527Z,0
2016-12-09T06:07:16.515Z,0
2016-12-09T06:08:16.532Z,0
2016-12-09T06:09:16.483Z,0
2016-12-09T06:10:16.991Z,0
2016-12-09T06:11:16.764Z,0
2016-12-09T06:12:16.425Z,0
2016-12-09T06:13:16.412Z,0
2016-12-09T06:14:16.387Z,0
2016-12-09T06:15:16.381Z,0
2016-12-09T06:16:16.672Z,0
2016-12-09T06:17:16.339Z,0
2016-12-09T06:18:16.325Z,0
2016-12-09T06:19:16.340Z,0
2016-12-09T06:20:16.603Z,0
2016-12-09T06:21:16.263Z,0
2016-12-09T06:22:16.256Z,0
2016-12-09T06:23:16.541Z,0
2016-12-09T06:24:16.231Z,0
2016-12-09T06:25:16.512Z,0
2016-12-09T06:26:16.500Z,0
2016-12-09T06:27:16.484Z,0
2016-12-09T06:28:17.145Z,0
2016-12-09T06:29:16.452Z,0
2016-12-09T06:30:16.150Z,0
2016-12-09T06:31:16.092Z,0
2016-12-09T06:32:16.083Z,0
2016-12-09T06:33:16.700Z,0
2016-12-09T06:34:16.053Z,0
2016-12-09T06:35:16.029Z,0
2016-12-09T06:36:16.318Z,0
2016-12-09T06:37:16.309Z,0
2016-12-09T06:38:15.975Z,0
2016-12-09T06:39:15.953Z,0
2016-12-09T06:40:16.252Z,0
2016-12-09T06:41:15.919Z,0
2016-12-09T06:42:15.906Z,0
2016-12-09T06:43:16.201Z,0
2016-12-09T06:44:15.865Z,0
2016-12-09T06:45:15.859Z,0
2016-12-09T06:46:15.835Z,0
2016-12-09T06:47:15.824Z,0
2016-12-09T06:48:15.804Z,0
2016-12-09T06:49:15.783Z,0
2016-12-09T06:50:15.760Z,0
2016-12-09T06:51:16.376Z,0
2016-12-09T06:52:15.737Z,0
2016-12-09T06:53:15.720Z,0
2016-12-09T06:54:16.012Z,4
2016-12-09T06:55:15.993Z,4
2016-12-09T06:56:15.674Z,0
2016-12-09T06:57:15.648Z,0
2016-12-09T06:58:15.945Z,4
2016-12-09T06:59:15.611Z,4
2016-12-09T07:00:15.592Z,4
2016-12-09T07:01:15.575Z,4
2016-12-09T07:02:15.565Z,8
2016-12-09T07:03:15.543Z,12
2016-12-09T07:04:15.538Z,12
2016-12-09T07:05:15.830Z,16
2016-12-09T07:06:15.494Z,16
2016-12-09T07:07:15.796Z,16
2016-12-09T07:08:15.470Z,20
2016-12-09T07:09:15.443Z,20
2016-12-09T07:10:15.425Z,24
2016-12-09T07:11:15.408Z,32
2016-12-09T07:12:15.389Z,36
2016-12-09T07:13:15.377Z,40
2016-12-09T07:14:15.354Z,40
2016-12-09T07:15:15.338Z,44
2016-12-09T07:16:15.643Z,52
2016-12-09T07:17:15.305Z,60
2016-12-09T07:18:15.287Z,64
2016-12-09T07:19:15.272Z,60
2016-12-09T07:20:15.251Z,60
2016-12-09T07:21:15.267Z,68
2016-12-09T07:22:15.237Z,72
2016-12-09T07:23:15.205Z,80
2016-12-09T07:24:15.185Z,80
2016-12-09T07:25:15.173Z,84
2016-12-09T07:26:15.461Z,96
2016-12-09T07:27:15.134Z,100
2016-12-09T07:28:15.123Z,108
2016-12-09T07:29:15.104Z,108
2016-12-09T07:30:15.081Z,116
2016-12-09T07:31:15.069Z,136
2016-12-09T07:32:15.372Z,144
2016-12-09T07:33:15.040Z,152
2016-12-09T07:34:15.015Z,152
2016-12-09T07:35:15.312Z,152
2016-12-09T07:36:15.290Z,164
2016-12-09T07:37:14.969Z,184
2016-12-09T07:38:14.993Z,180
2016-12-09T07:39:14.926Z,164
2016-12-09T07:40:14.921Z,180
2016-12-09T07:41:14.891Z,184
2016-12-09T07:42:14.883Z,184
2016-12-09T07:43:14.858Z,192
2016-12-09T07:44:14.840Z,232
2016-12-09T07:45:14.827Z,260
2016-12-09T07:46:14.806Z,256
2016-12-09T07:47:14.789Z,244
2016-12-09T07:48:15.088Z,260
2016-12-09T07:49:15.077Z,296
2016-12-09T07:50:14.737Z,320
2016-12-09T07:51:14.726Z,352
2016-12-09T07:52:14.706Z,400
2016-12-09T07:53:14.995Z,444
2016-12-09T07:54:14.700Z,488
2016-12-09T07:55:14.665Z,532
2016-12-09T07:56:14.635Z,604
2016-12-09T07:57:14.931Z,632
2016-12-09T07:58:14.610Z,652
2016-12-09T07:59:14.593Z,596
2016-12-09T08:00:14.568Z,536
2016-12-09T08:01:14.554Z,536
2016-12-09T08:02:14.540Z,580
2016-12-09T08:03:14.543Z,640
2016-12-09T08:04:14.508Z,740
2016-12-09T08:05:14.485Z,788
2016-12-09T08:06:14.469Z,852
2016-12-09T08:07:14.766Z,908
2016-12-09T08:08:14.794Z,880
2016-12-09T08:09:14.409Z,864
2016-12-09T08:10:14.606Z,888
2016-12-09T08:11:14.379Z,996
2016-12-09T08:12:14.363Z,1132
2016-12-09T08:13:14.343Z,1352
2016-12-09T08:14:14.333Z,1420
2016-12-09T08:15:14.316Z,1472
2016-12-09T08:16:14.304Z,1776
2016-12-09T08:17:14.284Z,1792
2016-12-09T08:18:14.266Z,1540
2016-12-09T08:19:14.563Z,1444
2016-12-09T08:20:14.232Z,1516
2016-12-09T08:21:14.214Z,1716
2016-12-09T08:22:14.196Z,1664
2016-12-09T08:23:14.503Z,1664
2016-12-09T08:24:14.532Z,1816
2016-12-09T08:25:14.154Z,1780
2016-12-09T08:26:14.770Z,1668
2016-12-09T08:27:14.124Z,1712
2016-12-09T08:28:14.101Z,1832
2016-12-09T08:29:14.080Z,2008
2016-12-09T08:30:14.065Z,2136
2016-12-09T08:31:14.052Z,2124
2016-12-09T08:32:14.088Z,2120
2016-12-09T08:33:14.017Z,2284
2016-12-09T08:34:14.320Z,2492
2016-12-09T08:35:13.991Z,2668
2016-12-09T08:36:13.962Z,2592
2016-12-09T08:37:14.007Z,2536
2016-12-09T08:38:13.954Z,2500
2016-12-09T08:39:14.556Z,2496
2016-12-09T08:40:13.905Z,2496
2016-12-09T08:41:13.889Z,2360
2016-12-09T08:42:13.874Z,2468
2016-12-09T08:43:14.175Z,2992
2016-12-09T08:44:13.838Z,3172
2016-12-09T08:45:13.878Z,2976
2016-12-09T08:46:14.120Z,2992
2016-12-09T08:47:14.149Z,2908
2016-12-09T08:48:13.772Z,2764
2016-12-09T08:49:13.756Z,2468
2016-12-09T08:50:14.051Z,2348
2016-12-09T08:51:13.721Z,2208
2016-12-09T08:52:14.096Z,2344
2016-12-09T08:53:13.693Z,2332
2016-12-09T08:54:13.689Z,2276
2016-12-09T08:55:13.669Z,2312
2016-12-09T08:56:13.644Z,2276
2016-12-09T08:57:13.640Z,2180
2016-12-09T08:58:13.608Z,2260
2016-12-09T08:59:13.906Z,2240
2016-12-09T09:00:13.911Z,2068
2016-12-09T09:01:13.568Z,1956
2016-12-09T09:02:13.603Z,1820
2016-12-09T09:03:13.534Z,1732
2016-12-09T09:04:13.519Z,1676
2016-12-09T09:05:13.500Z,1684
2016-12-09T09:06:13.479Z,1840
2016-12-09T09:07:13.793Z,2104
2016-12-09T09:08:13.456Z,2156
2016-12-09T09:09:13.441Z,2232
2016-12-09T09:10:13.417Z,2360
2016-12-09T09:11:13.712Z,2272
2016-12-09T09:12:13.697Z,2100
2016-12-09T09:13:13.368Z,1944
2016-12-09T09:14:13.355Z,1836
2016-12-09T09:15:13.336Z,1748
2016-12-09T09:16:13.644Z,1760
2016-12-09T09:17:13.325Z,1720
2016-12-09T09:18:13.300Z,1616
2016-12-09T09:19:13.293Z,1484
2016-12-09T09:20:13.575Z,1596
2016-12-09T09:21:13.241Z,1668
2016-12-09T09:22:13.217Z,1748
2016-12-09T09:23:13.518Z,1924
2016-12-09T09:24:13.194Z,1984
2016-12-09T09:25:13.215Z,2056
2016-12-09T09:26:13.154Z,2332
2016-12-09T09:27:13.159Z,2568
2016-12-09T09:28:13.794Z,2468
2016-12-09T09:29:13.426Z,2424
2016-12-09T09:30:13.405Z,2532
2016-12-09T09:31:13.111Z,2496
2016-12-09T09:32:13.065Z,2704
2016-12-09T09:33:13.046Z,2940
2016-12-09T09:34:13.027Z,2700
2016-12-09T09:35:13.022Z,2696
2016-12-09T09:36:13.004Z,2388
2016-12-09T09:37:13.605Z,2488
2016-12-09T09:38:12.969Z,2620
2016-12-09T09:39:12.954Z,2276
2016-12-09T09:40:12.932Z,2260
2016-12-09T09:41:12.919Z,2384
2016-12-09T09:42:13.215Z,2116
2016-12-09T09:43:12.883Z,2064
2016-12-09T09:44:12.893Z,2340
2016-12-09T09:45:13.181Z,2320
2016-12-09T09:46:12.872Z,2128
2016-12-09T09:47:12.829Z,1932
2016-12-09T09:48:13.184Z,1928
2016-12-09T09:49:12.791Z,1804
2016-12-09T09:50:12.785Z,1708
2016-12-09T09:51:12.755Z,1740
2016-12-09T09:52:13.061Z,1916
2016-12-09T09:53:12.726Z,1992
2016-12-09T09:54:12.722Z,2072
2016-12-09T09:55:12.696Z,2160
2016-12-09T09:56:13.306Z,2236
2016-12-09T09:57:12.977Z,2168
2016-12-09T09:58:12.647Z,2276
2016-12-09T09:59:12.626Z,2300
2016-12-09T10:00:12.928Z,2412
2016-12-09T10:01:12.910Z,2288
2016-12-09T10:02:12.583Z,2444
2016-12-09T10:03:12.598Z,2348
2016-12-09T10:04:12.556Z,2536
2016-12-09T10:05:12.580Z,2684
2016-12-09T10:06:12.542Z,2736
2016-12-09T10:07:12.552Z,2716
2016-12-09T10:08:12.803Z,2640
2016-12-09T10:09:12.804Z,2496
2016-12-09T10:10:12.988Z,2408
2016-12-09T10:11:12.556Z,2444
2016-12-09T10:12:12.426Z,2444
2016-12-09T10:13:12.571Z,2360
2016-12-09T10:14:12.406Z,2460
2016-12-09T10:15:12.427Z,2684
2016-12-09T10:16:12.401Z,2600
2016-12-09T10:17:12.676Z,2284
2016-12-09T10:18:12.659Z,2548
2016-12-09T10:19:12.326Z,2536
2016-12-09T10:20:12.619Z,2588
2016-12-09T10:21:12.606Z,2732
2016-12-09T10:22:12.590Z,2148
2016-12-09T10:23:12.259Z,2112
2016-12-09T10:24:12.241Z,2140
2016-12-09T10:25:12.539Z,2060
2016-12-09T10:26:12.217Z,1572
2016-12-09T10:27:12.201Z,1724
2016-12-09T10:28:12.184Z,2380
2016-12-09T10:29:12.840Z,2628
2016-12-09T10:30:12.463Z,2296
2016-12-09T10:31:12.133Z,2516
2016-12-09T10:32:12.115Z,2468
2016-12-09T10:33:12.433Z,2608
2016-12-09T10:34:12.399Z,2916
2016-12-09T10:35:12.062Z,3288
2016-12-09T10:36:12.370Z,3192
2016-12-09T10:37:12.041Z,3120
2016-12-09T10:38:12.020Z,3436
2016-12-09T10:39:12.004Z,3464
2016-12-09T10:40:12.305Z,3244
2016-12-09T10:41:11.982Z,3384
2016-12-09T10:42:11.956Z,3868
2016-12-09T10:43:11.947Z,3528
2016-12-09T10:44:12.251Z,3392
2016-12-09T10:45:11.916Z,3500
2016-12-09T10:46:11.895Z,3116
2016-12-09T10:47:11.897Z,3376
2016-12-09T10:48:11.865Z,3352
2016-12-09T10:49:11.847Z,3264
2016-12-09T10:50:11.830Z,3440
2016-12-09T10:51:11.817Z,3404
2016-12-09T10:52:11.802Z,3400
2016-12-09T10:53:11.796Z,2836
2016-12-09T10:54:11.771Z,2876
2016-12-09T10:55:12.071Z,3112
2016-12-09T10:56:11.747Z,3012
2016-12-09T10:57:11.720Z,3072
2016-12-09T10:58:12.024Z,3044
2016-12-09T10:59:11.699Z,3388
2016-12-09T11:00:11.995Z,3168
2016-12-09T11:01:12.021Z,3372
2016-12-09T11:02:11.642Z,3724
2016-12-09T11:03:11.629Z,3740
2016-12-09T11:04:11.622Z,3464
2016-12-09T11:05:11.613Z,3572
2016-12-09T11:06:11.903Z,3240
2016-12-09T11:07:11.579Z,3080
2016-12-09T11:08:11.879Z,3248
2016-12-09T11:09:11.590Z,3256
2016-12-09T11:10:11.848Z,3364
2016-12-09T11:11:11.831Z,3332
2016-12-09T11:12:12.126Z,3560
2016-12-09T11:13:11.802Z,3840
2016-12-09T11:14:11.783Z,3548
2016-12-09T11:15:11.452Z,3016
2016-12-09T11:16:11.432Z,2604
2016-12-09T11:17:11.420Z,2764
2016-12-09T11:18:11.403Z,3168
2016-12-09T11:19:11.711Z,2872
2016-12-09T11:20:11.687Z,2636
2016-12-09T11:21:11.702Z,2956
2016-12-09T11:22:11.659Z,3028
2016-12-09T11:23:11.328Z,2856
2016-12-09T11:24:11.626Z,3028
2016-12-09T11:25:11.302Z,2896
2016-12-09T11:26:11.590Z,2212
2016-12-09T11:27:11.264Z,2188
2016-12-09T11:28:11.561Z,2164
2016-12-09T11:29:11.242Z,2076
2016-12-09T11:30:11.534Z,2276
2016-12-09T11:31:11.521Z,2620
2016-12-09T11:32:11.828Z,2592
2016-12-09T11:33:11.182Z,2808
2016-12-09T11:34:11.475Z,2816
2016-12-09T11:35:11.142Z,2240
2016-12-09T11:36:11.126Z,2012
2016-12-09T11:37:11.113Z,2080
2016-12-09T11:38:11.099Z,2068
2016-12-09T11:39:11.094Z,2180
2016-12-09T11:40:11.719Z,2168
2016-12-09T11:41:11.078Z,2116
2016-12-09T11:42:11.041Z,2132
2016-12-09T11:43:11.036Z,1984
2016-12-09T11:44:11.006Z,2044
2016-12-09T11:45:11.308Z,2060
2016-12-09T11:46:11.291Z,2188
2016-12-09T11:47:10.975Z,1940
2016-12-09T11:48:10.946Z,1812
2016-12-09T11:49:10.968Z,1776
2016-12-09T11:50:10.928Z,1688
2016-12-09T11:51:10.908Z,1544
2016-12-09T11:52:11.255Z,1496
2016-12-09T11:53:10.871Z,1528
2016-12-09T11:54:11.249Z,1556
2016-12-09T11:55:11.156Z,1600
2016-12-09T11:56:10.831Z,1920
2016-12-09T11:57:10.820Z,2172
2016-12-09T11:58:11.110Z,2252
2016-12-09T11:59:11.094Z,2548
2016-12-09T12:00:10.765Z,2748
2016-12-09T12:01:10.754Z,2936
2016-12-09T12:02:10.731Z,2852
2016-12-09T12:03:10.714Z,2624
2016-12-09T12:04:10.701Z,2256
2016-12-09T12:05:10.683Z,2076
2016-12-09T12:06:10.669Z,2092
2016-12-09T12:07:10.651Z,2132
2016-12-09T12:08:10.953Z,2272
2016-12-09T12:09:10.627Z,2964
2016-12-09T12:10:10.820Z,2912
2016-12-09T12:11:10.912Z,2564
2016-12-09T12:12:10.583Z,2712
2016-12-09T12:13:10.569Z,3400
2016-12-09T12:14:10.548Z,3436
2016-12-09T12:15:10.539Z,3916
2016-12-09T12:16:10.831Z,3260
2016-12-09T12:17:10.820Z,3344
2016-12-09T12:18:10.487Z,3620
2016-12-09T12:19:10.791Z,3864
2016-12-09T12:20:10.469Z,3368
2016-12-09T12:21:10.438Z,3760
2016-12-09T12:22:10.427Z,3860
2016-12-09T12:23:10.411Z,3428
2016-12-09T12:24:10.425Z,3680
2016-12-09T12:25:10.696Z,3676
2016-12-09T12:26:10.365Z,3696
2016-12-09T12:27:10.980Z,3232
2016-12-09T12:28:10.338Z,3232
2016-12-09T12:29:10.640Z,3552
2016-12-09T12:30:10.622Z,3620
2016-12-09T12:31:10.613Z,3604
2016-12-09T12:32:10.291Z,3300
2016-12-09T12:33:10.262Z,3244
2016-12-09T12:34:10.251Z,3208
2016-12-09T12:35:10.228Z,3028
2016-12-09T12:36:10.530Z,2712
2016-12-09T12:37:10.254Z,2264
2016-12-09T12:38:10.184Z,1584
2016-12-09T12:39:10.167Z,1664
2016-12-09T12:40:10.155Z,1652
2016-12-09T12:41:10.451Z,1428
2016-12-09T12:42:10.126Z,1240
2016-12-09T12:43:10.421Z,1276
2016-12-09T12:44:10.104Z,1116
2016-12-09T12:45:10.086Z,1192
2016-12-09T12:46:10.066Z,1388
2016-12-09T12:47:10.053Z,1712
2016-12-09T12:48:10.035Z,2184
2016-12-09T12:49:10.365Z,2112
2016-12-09T12:50:10.006Z,2404
2016-12-09T12:51:10.000Z,2120
2016-12-09T12:52:09.973Z,2664
2016-12-09T12:53:09.991Z,2536
2016-12-09T12:54:09.951Z,2592
2016-12-09T12:55:09.926Z,2240
2016-12-09T12:56:10.332Z,1872
2016-12-09T12:57:09.896Z,2120
2016-12-09T12:58:09.894Z,2552
2016-12-09T12:59:09.869Z,3008
2016-12-09T13:00:09.854Z,3144
2016-12-09T13:01:09.841Z,3196
2016-12-09T13:02:10.135Z,3196
2016-12-09T13:03:09.808Z,3624
2016-12-09T13:04:10.523Z,3280
2016-12-09T13:05:10.110Z,3032
2016-12-09T13:06:09.767Z,3020
2016-12-09T13:07:09.743Z,3052
2016-12-09T13:08:09.727Z,2416
2016-12-09T13:09:10.088Z,2108
2016-12-09T13:10:09.696Z,2032
2016-12-09T13:11:09.687Z,1808
2016-12-09T13:12:09.724Z,1604
2016-12-09T13:13:09.976Z,2156
2016-12-09T13:14:09.979Z,2252
2016-12-09T13:15:09.625Z,2096
2016-12-09T13:16:09.608Z,1736
2016-12-09T13:17:09.912Z,1592
2016-12-09T13:18:10.206Z,1552
2016-12-09T13:19:09.592Z,1536
2016-12-09T13:20:09.556Z,1468
2016-12-09T13:21:09.852Z,1432
2016-12-09T13:22:09.523Z,1228
2016-12-09T13:23:09.517Z,1128
2016-12-09T13:24:09.500Z,1352
2016-12-09T13:25:09.495Z,1648
2016-12-09T13:26:09.458Z,1816
2016-12-09T13:27:09.456Z,1872
2016-12-09T13:28:09.432Z,1748
2016-12-09T13:29:09.484Z,1612
2016-12-09T13:30:09.408Z,1600
2016-12-09T13:31:09.697Z,1400
2016-12-09T13:32:09.375Z,1452
2016-12-09T13:33:09.358Z,1604
2016-12-09T13:34:09.348Z,1968
2016-12-09T13:35:09.328Z,2072
2016-12-09T13:36:09.672Z,1844
2016-12-09T13:37:09.298Z,1908
2016-12-09T13:38:09.283Z,1640
2016-12-09T13:39:09.603Z,1708
2016-12-09T13:40:09.253Z,1656
2016-12-09T13:41:09.242Z,1608
2016-12-09T13:42:09.536Z,1652
2016-12-09T13:43:09.215Z,1360
2016-12-09T13:44:09.511Z,1244
2016-12-09T13:45:09.179Z,1216
2016-12-09T13:46:09.164Z,1184
2016-12-09T13:47:09.152Z,1288
2016-12-09T13:48:09.668Z,1616
2016-12-09T13:49:09.129Z,1936
2016-12-09T13:50:09.113Z,1636
2016-12-09T13:51:09.407Z,1576
2016-12-09T13:52:09.072Z,1468
2016-12-09T13:53:09.063Z,1316
2016-12-09T13:54:09.047Z,1352
2016-12-09T13:55:09.035Z,1344
2016-12-09T13:56:09.334Z,1284
2016-12-09T13:57:09.039Z,1276
2016-12-09T13:58:09.000Z,1360
2016-12-09T13:59:09.003Z,1260
2016-12-09T14:00:09.283Z,1360
2016-12-09T14:01:09.582Z,1232
2016-12-09T14:02:09.572Z,1100
2016-12-09T14:03:08.930Z,980